Wetterdaten: Woche 23.05.22 - 29.05.22 (KW21)
Datum Zeit Temp. Aussen Temp. o. S. Temp +5cm Feuchte Auss Luftdruck Regen Sonnenschein Regendauer Solar Windben Empfang
23.05.2022 00:00 16,6 C 16,0 C 12,5 C 81 % 1009,5 hPa 0,0 l/m 0,00 h 0,00 h 0 W/m 3,9 km/h (1 Bft) 97,56 %
23.05.2022 01:00 16,5 C 15,9 C 12,4 C 81 % 1008,9 hPa 0,0 l/m 0,00 h 0,00 h 0 W/m 3,4 km/h (1 Bft) 98,37 %
23.05.2022 02:00 16,6 C 16,0 C 12,6 C 82 % 1008,2 hPa 0,0 l/m 0,00 h 0,00 h 0 W/m 3,4 km/h (1 Bft) 97,29 %
23.05.2022 03:00 16,9 C 16,6 C 13,2 C 78 % 1007,6 hPa 0,0 l/m 0,00 h 0,00 h 0 W/m 6,3 km/h (2 Bft) 97,15 %
23.05.2022 04:00 17,6 C 16,7 C 13,3 C 72 % 1007,1 hPa 0,0 l/m 0,00 h 0,00 h 0 W/m 6,2 km/h (2 Bft) 99,43 %
23.05.2022 05:00 17,1 C 15,9 C 12,5 C 74 % 1006,1 hPa 0,0 l/m 0,00 h 0,00 h 6 W/m 3,3 km/h (1 Bft) 95,72 %
23.05.2022 06:00 16,6 C 15,9 C 12,5 C 77 % 1005,3 hPa 0,0 l/m 0,00 h 0,00 h 39 W/m 2,8 km/h (1 Bft) 98,65 %
23.05.2022 07:00 17,1 C 16,9 C 13,2 C 77 % 1004,6 hPa 0,0 l/m 0,00 h 0,00 h 81 W/m 3,9 km/h (1 Bft) 97,95 %
23.05.2022 08:00 18,1 C 18,0 C 14,2 C 73 % 1004,0 hPa 0,0 l/m 0,00 h 0,00 h 166 W/m 9,4 km/h (2 Bft) 96,58 %
23.05.2022 09:00 19,5 C 19,8 C 15,9 C 69 % 1003,4 hPa 0,0 l/m 0,53 h 0,00 h 295 W/m 13,4 km/h (3 Bft) 97,79 %
23.05.2022 10:00 20,8 C 21,1 C 17,4 C 67 % 1002,9 hPa 0,0 l/m 0,60 h 0,00 h 350 W/m 13,7 km/h (3 Bft) 99,29 %
23.05.2022 11:00 22,0 C 22,5 C 18,4 C 65 % 1002,3 hPa 0,0 l/m 0,63 h 0,00 h 506 W/m 17,2 km/h (3 Bft) 94,73 %
23.05.2022 12:00 22,6 C 22,9 C 19,5 C 66 % 1001,3 hPa 0,0 l/m 0,33 h 0,00 h 418 W/m 15,7 km/h (3 Bft) 99,71 %
23.05.2022 13:00 24,9 C 26,3 C 25,2 C 62 % 1000,1 hPa 0,0 l/m 1,00 h 0,00 h 859 W/m 16,1 km/h (3 Bft) 97,15 %
23.05.2022 14:00 25,7 C 25,8 C 22,0 C 62 % 999,3 hPa 0,0 l/m 0,37 h 0,00 h 445 W/m 16,7 km/h (3 Bft) 97,62 %
23.05.2022 15:00 23,3 C 21,7 C 17,3 C 76 % 998,8 hPa 1,4 l/m 0,00 h 0,63 h 146 W/m 14,5 km/h (3 Bft) 97,86 %
23.05.2022 16:00 22,4 C 24,4 C 16,0 C 85 % 998,2 hPa 0,0 l/m 0,90 h 0,17 h 520 W/m 14,1 km/h (3 Bft) 97,77 %
23.05.2022 17:00 23,7 C 24,9 C 18,5 C 74 % 997,6 hPa 0,0 l/m 0,60 h 0,00 h 390 W/m 21,1 km/h (4 Bft) 96,63 %
23.05.2022 18:00 21,7 C 21,5 C 17,5 C 81 % 996,9 hPa 0,0 l/m 0,23 h 0,00 h 166 W/m 18,4 km/h (3 Bft) 98,16 %
23.05.2022 19:00 21,7 C 21,5 C 17,0 C 80 % 996,5 hPa 0,2 l/m 0,27 h 0,20 h 129 W/m 14,3 km/h (3 Bft) 97,58 %
23.05.2022 20:00 18,8 C 16,9 C 13,6 C 92 % 997,1 hPa 4,0 l/m 0,17 h 0,73 h 33 W/m 17,7 km/h (3 Bft) 98,01 %
23.05.2022 21:00 16,0 C 14,9 C 11,4 C 95 % 999,0 hPa 0,0 l/m 0,00 h 0,53 h 4 W/m 22,7 km/h (4 Bft) 96,02 %
23.05.2022 22:00 14,8 C 13,9 C 10,6 C 95 % 1000,9 hPa 0,0 l/m 0,00 h 0,00 h 0 W/m 16,1 km/h (3 Bft) 98,36 %
23.05.2022 23:00 14,7 C 13,9 C 10,4 C 94 % 1001,6 hPa 0,0 l/m 0,00 h 0,00 h 0 W/m 13,9 km/h (3 Bft) 97,01 %
24.05.2022 00:00 14,7 C 13,9 C 10,6 C 94 % 1002,0 hPa 0,0 l/m 0,00 h 0,00 h 0 W/m 10,2 km/h (2 Bft) 97,96 %
24.05.2022 01:00 14,5 C 13,9 C 10,9 C 95 % 1002,2 hPa 0,0 l/m 0,00 h 0,00 h 0 W/m 8,9 km/h (2 Bft) 97,50 %
24.05.2022 02:00 14,5 C 13,9 C 10,8 C 95 % 1002,1 hPa 0,0 l/m 0,00 h 0,00 h 0 W/m 11,1 km/h (2 Bft) 96,14 %
24.05.2022 03:00 14,4 C 13,9 C 10,9 C 96 % 1002,0 hPa 0,0 l/m 0,00 h 0,00 h 0 W/m 11,2 km/h (2 Bft) 97,96 %
24.05.2022 04:00 13,6 C 12,9 C 10,1 C 93 % 1002,1 hPa 0,0 l/m 0,00 h 0,00 h 0 W/m 10,8 km/h (2 Bft) 97,02 %
24.05.2022 05:00 13,1 C 12,3 C 9,6 C 92 % 1001,9 hPa 0,0 l/m 0,00 h 0,00 h 6 W/m 7,1 km/h (2 Bft) 98,79 %
24.05.2022 06:00 13,1 C 12,7 C 9,5 C 91 % 1002,6 hPa 0,0 l/m 0,00 h 0,20 h 15 W/m 10,4 km/h (2 Bft) 97,56 %
24.05.2022 07:00 12,8 C 12,1 C 8,5 C 89 % 1003,5 hPa 0,4 l/m 0,00 h 0,80 h 23 W/m 14,4 km/h (3 Bft) 96,87 %
24.05.2022 08:00 12,2 C 11,8 C 7,8 C 92 % 1004,4 hPa 0,0 l/m 0,00 h 0,53 h 71 W/m 18,3 km/h (3 Bft) 98,36 %
24.05.2022 09:00 13,1 C 14,2 C 10,4 C 90 % 1005,1 hPa 0,0 l/m 0,43 h 0,00 h 389 W/m 24,1 km/h (4 Bft) 98,57 %
24.05.2022 10:00 14,7 C 15,5 C 12,5 C 81 % 1005,4 hPa 0,0 l/m 0,23 h 0,00 h 327 W/m 21,6 km/h (4 Bft) 95,46 %
24.05.2022 11:00 15,3 C 15,6 C 12,1 C 76 % 1006,1 hPa 0,0 l/m 0,13 h 0,00 h 292 W/m 21,5 km/h (4 Bft) 98,86 %
24.05.2022 12:00 16,5 C 16,9 C 14,1 C 70 % 1006,7 hPa 0,0 l/m 0,30 h 0,03 h 360 W/m 22,2 km/h (4 Bft) 96,76 %
24.05.2022 13:00 17,9 C 19,5 C 18,6 C 67 % 1007,0 hPa 0,0 l/m 0,90 h 0,00 h 815 W/m 22,0 km/h (4 Bft) 99,53 %
24.05.2022 14:00 18,4 C 20,1 C 15,2 C 65 % 1007,5 hPa 0,0 l/m 0,90 h 0,00 h 789 W/m 24,6 km/h (4 Bft) 96,17 %
24.05.2022 15:00 16,8 C 17,1 C 12,8 C 73 % 1008,1 hPa 0,2 l/m 0,27 h 0,23 h 309 W/m 15,0 km/h (3 Bft) 97,38 %
24.05.2022 16:00 16,0 C 16,3 C 11,6 C 78 % 1008,5 hPa 0,2 l/m 0,18 h 0,33 h 241 W/m 13,8 km/h (3 Bft) 98,30 %
24.05.2022 17:00 16,8 C 19,2 C 13,3 C 71 % 1009,1 hPa 0,0 l/m 0,65 h 0,00 h 430 W/m 13,1 km/h (3 Bft) 97,95 %
24.05.2022 18:00 17,4 C 18,6 C 13,6 C 68 % 1009,4 hPa 0,0 l/m 0,37 h 0,00 h 227 W/m 20,0 km/h (4 Bft) 96,13 %
24.05.2022 19:00 15,9 C 15,9 C 11,5 C 71 % 1009,9 hPa 0,0 l/m 0,50 h 0,20 h 203 W/m 16,7 km/h (3 Bft) 99,79 %
24.05.2022 20:00 15,4 C 14,7 C 11,4 C 75 % 1010,1 hPa 0,0 l/m 0,00 h 0,00 h 49 W/m 5,5 km/h (1 Bft) 95,65 %
24.05.2022 21:00 14,6 C 13,5 C 10,4 C 79 % 1010,8 hPa 0,0 l/m 0,17 h 0,00 h 13 W/m 6,1 km/h (2 Bft) 97,08 %
24.05.2022 22:00 13,5 C 12,5 C 9,4 C 82 % 1011,6 hPa 0,0 l/m 0,00 h 0,00 h 0 W/m 5,3 km/h (1 Bft) 98,29 %
24.05.2022 23:00 13,1 C 12,2 C 9,2 C 84 % 1011,9 hPa 0,0 l/m 0,00 h 0,00 h 0 W/m 3,2 km/h (1 Bft) 96,23 %
25.05.2022 00:00 12,6 C 11,2 C 8,3 C 86 % 1012,4 hPa 0,0 l/m 0,00 h 0,00 h 0 W/m 0,4 km/h (0 Bft) 99,02 %
25.05.2022 01:00 11,7 C 10,5 C 7,5 C 89 % 1012,7 hPa 0,0 l/m 0,00 h 0,00 h 0 W/m 0,6 km/h (0 Bft) 95,95 %
25.05.2022 02:00 11,2 C 10,3 C 7,3 C 90 % 1013,0 hPa 0,0 l/m 0,00 h 0,00 h 0 W/m 1,5 km/h (1 Bft) 99,29 %
25.05.2022 03:00 10,7 C 10,0 C 7,2 C 91 % 1013,3 hPa 0,0 l/m 0,00 h 0,00 h 0 W/m 6,2 km/h (2 Bft) 95,44 %
25.05.2022 04:00 10,4 C 9,5 C 6,9 C 91 % 1013,6 hPa 0,0 l/m 0,00 h 0,00 h 0 W/m 8,7 km/h (2 Bft) 98,49 %
25.05.2022 05:00 10,2 C 9,4 C 6,7 C 92 % 1014,1 hPa 0,0 l/m 0,00 h 0,00 h 7 W/m 8,8 km/h (2 Bft) 98,86 %
25.05.2022 06:00 10,2 C 9,6 C 6,8 C 93 % 1014,6 hPa 0,0 l/m 0,00 h 0,00 h 18 W/m 10,2 km/h (2 Bft) 95,23 %
25.05.2022 07:00 11,0 C 10,8 C 7,6 C 91 % 1015,0 hPa 0,0 l/m 0,13 h 0,00 h 64 W/m 13,4 km/h (3 Bft) 98,86 %
25.05.2022 08:00 12,8 C 14,8 C 10,1 C 85 % 1015,3 hPa 0,0 l/m 1,00 h 0,00 h 393 W/m 21,7 km/h (4 Bft) 98,50 %
25.05.2022 09:00 15,1 C 19,7 C 14,7 C 74 % 1015,6 hPa 0,0 l/m 1,00 h 0,00 h 581 W/m 17,5 km/h (3 Bft) 97,30 %
25.05.2022 10:00 16,6 C 17,9 C 16,5 C 67 % 1015,8 hPa 0,0 l/m 1,00 h 0,00 h 733 W/m 17,7 km/h (3 Bft) 96,61 %
25.05.2022 11:00 18,0 C 19,9 C 15,4 C 62 % 1015,8 hPa 0,0 l/m 1,00 h 0,00 h 853 W/m 24,2 km/h (4 Bft) 95,94 %
25.05.2022 12:00 19,3 C 20,7 C 21,4 C 58 % 1015,9 hPa 0,0 l/m 0,90 h 0,00 h 863 W/m 22,9 km/h (4 Bft) 97,68 %
25.05.2022 13:00 20,0 C 21,3 C 20,6 C 56 % 1015,9 hPa 0,0 l/m 0,80 h 0,00 h 814 W/m 20,7 km/h (4 Bft) 99,36 %
25.05.2022 14:00 20,4 C 21,6 C 17,1 C 55 % 1015,6 hPa 0,0 l/m 0,60 h 0,00 h 631 W/m 22,3 km/h (4 Bft) 97,22 %
25.05.2022 15:00 20,1 C 20,7 C 16,4 C 53 % 1015,7 hPa 0,0 l/m 0,37 h 0,00 h 412 W/m 17,4 km/h (3 Bft) 97,72 %
25.05.2022 16:00 20,0 C 20,9 C 16,2 C 53 % 1015,7 hPa 0,0 l/m 0,30 h 0,00 h 398 W/m 19,7 km/h (3 Bft) 97,01 %
25.05.2022 17:00 19,6 C 19,6 C 15,8 C 54 % 1015,7 hPa 0,0 l/m 0,43 h 0,00 h 255 W/m 19,8 km/h (4 Bft) 98,36 %
25.05.2022 18:00 18,9 C 18,2 C 14,8 C 57 % 1016,0 hPa 0,0 l/m 0,00 h 0,00 h 93 W/m 19,0 km/h (3 Bft) 98,60 %
25.05.2022 19:00 18,1 C 17,4 C 13,9 C 59 % 1016,3 hPa 0,0 l/m 0,00 h 0,00 h 73 W/m 17,2 km/h (3 Bft) 95,58 %
25.05.2022 20:00 17,6 C 16,9 C 13,5 C 62 % 1016,7 hPa 0,0 l/m 0,00 h 0,00 h 45 W/m 17,2 km/h (3 Bft) 98,72 %
25.05.2022 21:00 17,1 C 16,2 C 12,8 C 65 % 1017,0 hPa 0,0 l/m 0,00 h 0,00 h 8 W/m 14,1 km/h (3 Bft) 98,31 %
25.05.2022 22:00 16,7 C 15,9 C 12,5 C 67 % 1017,5 hPa 0,0 l/m 0,00 h 0,00 h 0 W/m 13,8 km/h (3 Bft) 95,09 %
25.05.2022 23:00 16,4 C 15,6 C 12,2 C 69 % 1017,7 hPa 0,0 l/m 0,00 h 0,00 h 0 W/m 15,6 km/h (3 Bft) 99,29 %
26.05.2022 00:00 16,1 C 15,3 C 11,9 C 73 % 1017,9 hPa 0,0 l/m 0,00 h 0,00 h 0 W/m 16,1 km/h (3 Bft) 97,65 %
26.05.2022 01:00 15,6 C 15,0 C 11,7 C 77 % 1018,1 hPa 0,0 l/m 0,00 h 0,00 h 0 W/m 12,8 km/h (3 Bft) 96,49 %
26.05.2022 02:00 15,6 C 14,8 C 11,4 C 78 % 1018,1 hPa 0,0 l/m 0,00 h 0,00 h 0 W/m 15,0 km/h (3 Bft) 98,29 %
26.05.2022 03:00 15,3 C 14,4 C 11,1 C 81 % 1018,2 hPa 0,0 l/m 0,00 h 0,00 h 0 W/m 14,3 km/h (3 Bft) 98,23 %
26.05.2022 04:00 15,0 C 14,4 C 11,1 C 84 % 1018,5 hPa 0,0 l/m 0,00 h 0,00 h 0 W/m 11,8 km/h (2 Bft) 96,19 %
26.05.2022 05:00 14,6 C 13,5 C 10,1 C 88 % 1018,7 hPa 1,0 l/m 0,00 h 0,40 h 0 W/m 10,1 km/h (2 Bft) 99,50 %
26.05.2022 06:00 14,0 C 13,1 C 9,4 C 94 % 1019,2 hPa 0,0 l/m 0,00 h 0,00 h 25 W/m 6,3 km/h (2 Bft) 96,51 %
26.05.2022 07:00 14,2 C 13,8 C 9,7 C 94 % 1019,8 hPa 0,0 l/m 0,17 h 0,00 h 89 W/m 10,3 km/h (2 Bft) 97,44 %
26.05.2022 08:00 15,0 C 15,0 C 10,3 C 90 % 1020,4 hPa 0,0 l/m 0,00 h 0,00 h 167 W/m 12,4 km/h (3 Bft) 97,30 %
26.05.2022 09:00 16,2 C 17,4 C 13,1 C 85 % 1020,9 hPa 0,0 l/m 0,47 h 0,00 h 331 W/m 13,4 km/h (3 Bft) 97,50 %
26.05.2022 10:00 17,0 C 17,2 C 13,7 C 81 % 1021,5 hPa 0,0 l/m 0,10 h 0,00 h 298 W/m 13,0 km/h (3 Bft) 95,94 %
26.05.2022 11:00 18,5 C 19,3 C 15,4 C 75 % 1021,8 hPa 0,0 l/m 0,50 h 0,00 h 528 W/m 15,5 km/h (3 Bft) 99,80 %
26.05.2022 12:00 19,2 C 20,1 C 18,8 C 71 % 1022,1 hPa 0,0 l/m 0,57 h 0,00 h 593 W/m 16,1 km/h (3 Bft) 96,44 %
26.05.2022 13:00 19,9 C 20,7 C 19,3 C 66 % 1022,3 hPa 0,0 l/m 0,50 h 0,00 h 516 W/m 15,7 km/h (3 Bft) 98,72 %
26.05.2022 14:00 20,4 C 21,6 C 17,2 C 65 % 1022,0 hPa 0,0 l/m 0,67 h 0,00 h 614 W/m 20,5 km/h (4 Bft) 95,88 %
26.05.2022 15:00 20,9 C 21,5 C 17,4 C 63 % 1021,5 hPa 0,0 l/m 0,57 h 0,00 h 471 W/m 18,7 km/h (3 Bft) 99,08 %
26.05.2022 16:00 20,7 C 21,3 C 17,1 C 63 % 1021,3 hPa 0,0 l/m 0,40 h 0,00 h 351 W/m 18,9 km/h (3 Bft) 98,15 %
26.05.2022 17:00 20,9 C 21,4 C 17,1 C 64 % 1021,0 hPa 0,0 l/m 0,57 h 0,00 h 311 W/m 16,9 km/h (3 Bft) 95,94 %
26.05.2022 18:00 20,6 C 20,8 C 16,6 C 65 % 1020,5 hPa 0,0 l/m 0,43 h 0,00 h 218 W/m 18,1 km/h (3 Bft) 98,25 %
26.05.2022 19:00 20,0 C 19,3 C 15,8 C 68 % 1020,4 hPa 0,0 l/m 0,00 h 0,00 h 93 W/m 19,4 km/h (3 Bft) 99,09 %
26.05.2022 20:00 19,5 C 18,7 C 15,2 C 70 % 1020,4 hPa 0,0 l/m 0,00 h 0,00 h 31 W/m 15,9 km/h (3 Bft) 95,88 %
26.05.2022 21:00 18,9 C 18,0 C 14,5 C 71 % 1020,5 hPa 0,0 l/m 0,00 h 0,00 h 8 W/m 19,3 km/h (3 Bft) 99,14 %
26.05.2022 22:00 18,0 C 17,0 C 13,6 C 74 % 1020,9 hPa 0,0 l/m 0,00 h 0,00 h 0 W/m 12,9 km/h (3 Bft) 96,94 %
26.05.2022 23:00 16,8 C 15,9 C 12,5 C 77 % 1021,2 hPa 0,0 l/m 0,00 h 0,00 h 0 W/m 17,7 km/h (3 Bft) 97,58 %
27.05.2022 00:00 16,0 C 15,2 C 11,9 C 79 % 1021,1 hPa 0,0 l/m 0,00 h 0,00 h 0 W/m 18,3 km/h (3 Bft) 96,53 %
27.05.2022 01:00 15,6 C 14,9 C 11,7 C 81 % 1020,9 hPa 0,0 l/m 0,00 h 0,00 h 0 W/m 17,6 km/h (3 Bft) 97,72 %
27.05.2022 02:00 15,3 C 14,4 C 11,1 C 82 % 1020,5 hPa 0,0 l/m 0,00 h 0,00 h 0 W/m 17,3 km/h (3 Bft) 96,58 %
27.05.2022 03:00 14,9 C 14,2 C 11,0 C 84 % 1020,2 hPa 0,0 l/m 0,00 h 0,00 h 0 W/m 16,6 km/h (3 Bft) 99,08 %
27.05.2022 04:00 14,6 C 13,8 C 10,5 C 86 % 1020,0 hPa 0,0 l/m 0,00 h 0,07 h 0 W/m 17,3 km/h (3 Bft) 96,30 %
27.05.2022 05:00 13,7 C 12,6 C 9,0 C 93 % 1019,9 hPa 0,6 l/m 0,00 h 0,13 h 4 W/m 12,3 km/h (3 Bft) 97,43 %
27.05.2022 06:00 13,3 C 12,2 C 8,9 C 96 % 1020,1 hPa 1,2 l/m 0,00 h 0,37 h 13 W/m 8,9 km/h (2 Bft) 98,23 %
27.05.2022 07:00 12,9 C 12,2 C 8,8 C 97 % 1020,4 hPa 0,4 l/m 0,00 h 0,20 h 50 W/m 9,0 km/h (2 Bft) 95,50 %
27.05.2022 08:00 13,1 C 12,5 C 9,0 C 97 % 1020,6 hPa 0,0 l/m 0,00 h 0,07 h 69 W/m 5,6 km/h (1 Bft) 94,58 %
27.05.2022 09:00 14,1 C 15,6 C 10,9 C 97 % 1020,8 hPa 0,0 l/m 0,33 h 0,00 h 299 W/m 8,3 km/h (2 Bft) 92,53 %
27.05.2022 10:00 16,2 C 17,7 C 12,4 C 87 % 1020,9 hPa 0,0 l/m 0,83 h 0,00 h 534 W/m 15,8 km/h (3 Bft) 97,86 %
27.05.2022 11:00 17,7 C 18,8 C 14,7 C 74 % 1020,9 hPa 0,0 l/m 0,57 h 0,03 h 524 W/m 17,6 km/h (3 Bft) 97,87 %
27.05.2022 12:00 17,9 C 19,3 C 19,2 C 72 % 1021,0 hPa 0,0 l/m 0,73 h 0,00 h 797 W/m 18,1 km/h (3 Bft) 96,17 %
27.05.2022 13:00 19,2 C 20,4 C 20,3 C 64 % 1020,9 hPa 0,2 l/m 0,83 h 0,00 h 825 W/m 25,6 km/h (4 Bft) 98,08 %
27.05.2022 14:00 19,6 C 21,0 C 16,3 C 58 % 1021,0 hPa 0,0 l/m 0,83 h 0,00 h 772 W/m 27,5 km/h (4 Bft) 98,79 %
27.05.2022 15:00 19,7 C 21,5 C 15,8 C 56 % 1021,1 hPa 0,0 l/m 0,70 h 0,00 h 667 W/m 26,4 km/h (4 Bft) 96,30 %
27.05.2022 16:00 19,4 C 22,5 C 15,6 C 55 % 1021,3 hPa 0,0 l/m 0,90 h 0,00 h 686 W/m 27,5 km/h (4 Bft) 97,15 %
27.05.2022 17:00 19,1 C 22,8 C 15,7 C 52 % 1021,5 hPa 0,0 l/m 0,93 h 0,00 h 604 W/m 25,3 km/h (4 Bft) 98,91 %
27.05.2022 18:00 18,0 C 21,5 C 14,9 C 54 % 1021,9 hPa 0,0 l/m 0,87 h 0,00 h 397 W/m 25,8 km/h (4 Bft) 97,16 %
27.05.2022 19:00 16,7 C 16,9 C 12,5 C 57 % 1022,2 hPa 0,0 l/m 0,77 h 0,00 h 216 W/m 26,6 km/h (4 Bft) 97,65 %
27.05.2022 20:00 15,0 C 14,3 C 11,0 C 60 % 1022,6 hPa 0,0 l/m 0,00 h 0,00 h 36 W/m 21,5 km/h (4 Bft) 96,87 %
27.05.2022 21:00 13,8 C 12,9 C 9,7 C 65 % 1023,0 hPa 0,0 l/m 0,00 h 0,00 h 10 W/m 12,5 km/h (3 Bft) 91,32 %
27.05.2022 22:00 12,6 C 11,5 C 8,4 C 70 % 1023,1 hPa 0,0 l/m 0,00 h 0,00 h 0 W/m 4,4 km/h (1 Bft) 97,58 %
27.05.2022 23:00 11,8 C 10,7 C 7,7 C 74 % 1023,0 hPa 0,0 l/m 0,00 h 0,00 h 0 W/m 3,1 km/h (1 Bft) 98,59 %
28.05.2022 00:00 11,2 C 10,2 C 7,2 C 76 % 1022,9 hPa 0,0 l/m 0,00 h 0,00 h 0 W/m 3,8 km/h (1 Bft) 94,44 %
28.05.2022 01:00 10,6 C 9,6 C 6,8 C 78 % 1022,3 hPa 0,0 l/m 0,00 h 0,00 h 0 W/m 4,2 km/h (1 Bft) 96,31 %
28.05.2022 02:00 10,6 C 10,0 C 7,0 C 79 % 1021,8 hPa 0,0 l/m 0,00 h 0,00 h 0 W/m 5,3 km/h (1 Bft) 97,58 %
28.05.2022 03:00 10,9 C 10,2 C 7,2 C 79 % 1021,4 hPa 0,0 l/m 0,00 h 0,00 h 0 W/m 8,6 km/h (2 Bft) 97,86 %
28.05.2022 04:00 10,7 C 9,8 C 6,8 C 80 % 1021,3 hPa 0,0 l/m 0,00 h 0,00 h 0 W/m 6,3 km/h (2 Bft) 97,02 %
28.05.2022 05:00 9,9 C 8,9 C 6,1 C 83 % 1021,1 hPa 0,0 l/m 0,00 h 0,00 h 9 W/m 4,7 km/h (1 Bft) 97,93 %
28.05.2022 06:00 9,9 C 9,3 C 6,2 C 86 % 1021,4 hPa 0,0 l/m 0,00 h 0,00 h 22 W/m 6,4 km/h (2 Bft) 98,20 %
28.05.2022 07:00 10,8 C 10,7 C 7,3 C 88 % 1021,6 hPa 0,0 l/m 0,07 h 0,00 h 58 W/m 11,6 km/h (2 Bft) 94,98 %
28.05.2022 08:00 12,9 C 14,7 C 9,5 C 80 % 1021,8 hPa 0,0 l/m 0,83 h 0,00 h 355 W/m 18,8 km/h (3 Bft) 95,73 %
28.05.2022 09:00 15,3 C 19,9 C 13,7 C 68 % 1021,9 hPa 0,0 l/m 0,90 h 0,00 h 600 W/m 19,5 km/h (3 Bft) 98,79 %
28.05.2022 10:00 15,6 C 17,4 C 15,0 C 62 % 1022,0 hPa 0,0 l/m 0,83 h 0,00 h 679 W/m 19,9 km/h (4 Bft) 97,15 %
28.05.2022 11:00 16,0 C 17,6 C 13,9 C 58 % 1021,9 hPa 0,0 l/m 0,60 h 0,00 h 574 W/m 18,4 km/h (3 Bft) 99,57 %
28.05.2022 12:00 16,9 C 18,4 C 18,2 C 54 % 1021,5 hPa 0,0 l/m 0,73 h 0,00 h 793 W/m 20,5 km/h (4 Bft) 96,80 %
28.05.2022 13:00 17,8 C 19,4 C 18,7 C 52 % 1021,2 hPa 0,0 l/m 0,70 h 0,00 h 814 W/m 19,3 km/h (3 Bft) 96,46 %
28.05.2022 14:00 18,3 C 19,7 C 14,9 C 49 % 1020,7 hPa 0,0 l/m 0,47 h 0,00 h 604 W/m 19,8 km/h (4 Bft) 96,30 %
28.05.2022 15:00 18,5 C 20,7 C 14,8 C 49 % 1020,3 hPa 0,0 l/m 0,83 h 0,00 h 790 W/m 19,7 km/h (3 Bft) 97,86 %
28.05.2022 16:00 18,1 C 19,6 C 14,5 C 50 % 1020,0 hPa 0,0 l/m 0,43 h 0,00 h 430 W/m 20,8 km/h (4 Bft) 98,36 %
28.05.2022 17:00 17,0 C 18,3 C 13,5 C 52 % 1019,8 hPa 0,0 l/m 0,43 h 0,00 h 306 W/m 18,2 km/h (3 Bft) 97,58 %
28.05.2022 18:00 16,9 C 18,2 C 13,4 C 53 % 1019,6 hPa 0,0 l/m 0,60 h 0,00 h 286 W/m 21,7 km/h (4 Bft) 96,43 %
28.05.2022 19:00 15,8 C 15,7 C 11,7 C 56 % 1019,5 hPa 0,0 l/m 0,27 h 0,00 h 125 W/m 22,8 km/h (4 Bft) 99,50 %
28.05.2022 20:00 14,2 C 13,7 C 10,2 C 61 % 1019,4 hPa 0,0 l/m 0,07 h 0,00 h 47 W/m 17,3 km/h (3 Bft) 95,94 %
28.05.2022 21:00 13,2 C 12,5 C 9,1 C 65 % 1019,4 hPa 0,0 l/m 0,00 h 0,00 h 12 W/m 14,1 km/h (3 Bft) 98,15 %
28.05.2022 22:00 12,3 C 11,3 C 8,1 C 69 % 1019,3 hPa 0,0 l/m 0,00 h 0,00 h 0 W/m 10,6 km/h (2 Bft) 98,79 %
28.05.2022 23:00 11,0 C 10,1 C 6,9 C 72 % 1019,2 hPa 0,0 l/m 0,00 h 0,00 h 0 W/m 7,8 km/h (2 Bft) 96,13 %
29.05.2022 00:00 10,0 C 9,0 C 5,8 C 77 % 1018,8 hPa 0,0 l/m 0,00 h 0,00 h 0 W/m 6,7 km/h (2 Bft) 97,95 %
29.05.2022 01:00 9,2 C 8,2 C 5,2 C 82 % 1018,3 hPa 0,0 l/m 0,00 h 0,00 h 0 W/m 3,7 km/h (1 Bft) 97,65 %
29.05.2022 02:00 8,6 C 7,6 C 4,8 C 85 % 1017,8 hPa 0,0 l/m 0,00 h 0,00 h 0 W/m 2,6 km/h (1 Bft) 98,15 %
29.05.2022 03:00 8,0 C 7,0 C 4,3 C 87 % 1017,5 hPa 0,0 l/m 0,00 h 0,00 h 0 W/m 1,2 km/h (1 Bft) 98,65 %
29.05.2022 04:00 8,0 C 7,2 C 4,4 C 89 % 1017,0 hPa 0,0 l/m 0,00 h 0,00 h 0 W/m 1,4 km/h (1 Bft) 94,90 %
29.05.2022 05:00 7,9 C 7,2 C 4,4 C 90 % 1016,8 hPa 0,0 l/m 0,00 h 0,00 h 8 W/m 2,2 km/h (1 Bft) 97,60 %
29.05.2022 06:00 8,5 C 8,3 C 5,4 C 90 % 1016,5 hPa 0,0 l/m 0,00 h 0,00 h 34 W/m 3,9 km/h (1 Bft) 97,58 %
29.05.2022 07:00 9,2 C 9,0 C 5,4 C 92 % 1016,3 hPa 0,0 l/m 0,00 h 0,20 h 64 W/m 4,5 km/h (1 Bft) 97,51 %
29.05.2022 08:00 9,6 C 9,9 C 6,3 C 93 % 1016,2 hPa 0,2 l/m 0,10 h 0,07 h 154 W/m 7,2 km/h (2 Bft) 98,13 %
29.05.2022 09:00 10,6 C 11,9 C 8,2 C 91 % 1016,2 hPa 0,0 l/m 0,33 h 0,00 h 273 W/m 9,9 km/h (2 Bft) 96,52 %
29.05.2022 10:00 11,9 C 12,3 C 8,5 C 85 % 1015,9 hPa 0,4 l/m 0,13 h 0,30 h 231 W/m 8,3 km/h (2 Bft) 97,37 %
29.05.2022 11:00 11,7 C 12,3 C 7,5 C 88 % 1015,7 hPa 0,4 l/m 0,27 h 0,30 h 362 W/m 7,5 km/h (2 Bft) 97,81 %
29.05.2022 12:00 12,9 C 13,9 C 10,6 C 84 % 1015,4 hPa 0,0 l/m 0,43 h 0,10 h 392 W/m 14,3 km/h (3 Bft) 98,51 %
29.05.2022 13:00 13,5 C 14,5 C 11,7 C 82 % 1015,0 hPa 1,6 l/m 0,63 h 0,20 h 526 W/m 11,8 km/h (2 Bft) 93,53 %
29.05.2022 14:00 14,8 C 17,5 C 10,2 C 81 % 1014,4 hPa 0,0 l/m 1,00 h 0,00 h 795 W/m 11,9 km/h (2 Bft) 98,58 %
29.05.2022 15:00 14,7 C 15,1 C 11,0 C 77 % 1014,1 hPa 0,0 l/m 0,27 h 0,10 h 321 W/m 15,6 km/h (3 Bft) 98,36 %
29.05.2022 16:00 15,0 C 16,5 C 11,5 C 71 % 1014,0 hPa 0,0 l/m 0,73 h 0,00 h 428 W/m 17,3 km/h (3 Bft) 96,94 %
29.05.2022 17:00 13,3 C 13,5 C 9,0 C 78 % 1013,8 hPa 0,2 l/m 0,17 h 0,27 h 160 W/m 13,2 km/h (3 Bft) 97,13 %
29.05.2022 18:00 13,4 C 13,6 C 9,7 C 76 % 1013,5 hPa 0,0 l/m 0,00 h 0,00 h 159 W/m 11,1 km/h (2 Bft) 99,30 %
29.05.2022 19:00 13,6 C 13,8 C 9,4 C 72 % 1013,5 hPa 0,0 l/m 0,50 h 0,00 h 155 W/m 14,2 km/h (3 Bft) 96,17 %
29.05.2022 20:00 12,6 C 12,1 C 8,3 C 73 % 1013,6 hPa 0,0 l/m 0,00 h 0,00 h 44 W/m 13,4 km/h (3 Bft) 98,51 %
29.05.2022 21:00 11,8 C 11,1 C 7,7 C 77 % 1013,8 hPa 0,0 l/m 0,00 h 0,00 h 11 W/m 9,0 km/h (2 Bft) 97,30 %
29.05.2022 22:00 11,3 C 10,4 C 7,0 C 78 % 1013,8 hPa 0,0 l/m 0,00 h 0,00 h 0 W/m 5,3 km/h (1 Bft) 96,16 %
29.05.2022 23:00 10,8 C 10,0 C 6,7 C 82 % 1013,7 hPa 0,0 l/m 0,00 h 0,00 h 0 W/m 3,6 km/h (1 Bft) 96,94 %
Min-Datum _ 29.05.22 29.05.22 29.05.22 28.05.22 23.05.22 - - - - 23.05.22 28.05.22
_ Min-Zeit 05:02 03:20 03:24 15:38 19:02 - - - - 00:00 13:30
Minimum _ 7,8 C 6,7 C 3,9 C 46 % 996,4 hPa - - - - 0,0 km/h (0 Bft) 47,37 %
Max-Datum _ 23.05.22 23.05.22 23.05.22 27.05.22 27.05.22 23.05.22 24.05.22 24.05.22 29.05.22 24.05.22 23.05.22
_ Max-Zeit 14:14 16:54 13:40 09:26 22:14 20:10 16:55 16:45 13:20 09:42 00:32
Maximum _ 26,3 C 29,4 C 28,3 C 98 % 1023,2 hPa 4,0 l/m 0,08 h 0,08 h 1184 W/m 51,5 km/h
S-SO (7 Bft)
100,00 %
Durchschnitt _ 15,5 C 15,6 C 12,0 C 76 % 1014,5 hPa #12,6 l/m #43:46 h #7:24 h 315 W/m 13,6 km/h (3 Bft) 97,40 %
© 2022 W. Hausmann